sensor_id;sensor_type;location;lat;lon;timestamp;pressure;altitude;pressure_sealevel;temperature
65316;BMP280;51920;53.952;10.292;2022-07-29T00:01:20;101692.22;;;12.49
65316;BMP280;51920;53.952;10.292;2022-07-29T00:03:45;101689.81;;;12.44
65316;BMP280;51920;53.952;10.292;2022-07-29T00:06:11;101691.28;;;12.38
65316;BMP280;51920;53.952;10.292;2022-07-29T00:08:36;101694.38;;;12.40
65316;BMP280;51920;53.952;10.292;2022-07-29T00:11:02;101702.16;;;12.38
65316;BMP280;51920;53.952;10.292;2022-07-29T00:13:27;101697.69;;;12.22
65316;BMP280;51920;53.952;10.292;2022-07-29T00:15:52;101698.75;;;12.18
65316;BMP280;51920;53.952;10.292;2022-07-29T00:18:18;101689.31;;;12.08
65316;BMP280;51920;53.952;10.292;2022-07-29T00:20:43;101695.47;;;12.05
65316;BMP280;51920;53.952;10.292;2022-07-29T00:23:09;101697.41;;;12.04
65316;BMP280;51920;53.952;10.292;2022-07-29T00:25:34;101688.09;;;11.82
65316;BMP280;51920;53.952;10.292;2022-07-29T00:27:59;101689.59;;;11.76
65316;BMP280;51920;53.952;10.292;2022-07-29T00:30:25;101697.00;;;11.79
65316;BMP280;51920;53.952;10.292;2022-07-29T00:32:50;101682.81;;;11.67
65316;BMP280;51920;53.952;10.292;2022-07-29T00:35:15;101684.75;;;11.66
65316;BMP280;51920;53.952;10.292;2022-07-29T00:37:59;101692.97;;;11.70
65316;BMP280;51920;53.952;10.292;2022-07-29T00:40:25;101689.41;;;11.66
65316;BMP280;51920;53.952;10.292;2022-07-29T00:42:51;101691.03;;;11.70
65316;BMP280;51920;53.952;10.292;2022-07-29T00:45:17;101686.38;;;11.71
65316;BMP280;51920;53.952;10.292;2022-07-29T00:47:43;101689.47;;;11.69
65316;BMP280;51920;53.952;10.292;2022-07-29T00:50:11;101695.59;;;11.66
65316;BMP280;51920;53.952;10.292;2022-07-29T00:52:38;101690.91;;;11.63
65316;BMP280;51920;53.952;10.292;2022-07-29T00:55:04;101690.81;;;11.59
65316;BMP280;51920;53.952;10.292;2022-07-29T00:57:30;101690.06;;;11.59
65316;BMP280;51920;53.952;10.292;2022-07-29T00:59:56;101682.09;;;11.47
65316;BMP280;51920;53.952;10.292;2022-07-29T01:02:21;101689.06;;;11.48
65316;BMP280;51920;53.952;10.292;2022-07-29T01:04:47;101693.63;;;11.44
65316;BMP280;51920;53.952;10.292;2022-07-29T01:07:13;101685.09;;;11.42
65316;BMP280;51920;53.952;10.292;2022-07-29T01:09:38;101690.81;;;11.36
65316;BMP280;51920;53.952;10.292;2022-07-29T01:12:04;101676.75;;;11.31
65316;BMP280;51920;53.952;10.292;2022-07-29T01:14:31;101686.53;;;11.35
65316;BMP280;51920;53.952;10.292;2022-07-29T01:17:05;101681.88;;;11.36
65316;BMP280;51920;53.952;10.292;2022-07-29T01:19:47;101686.53;;;11.35
65316;BMP280;51920;53.952;10.292;2022-07-29T01:30:25;101674.44;;;11.10
65316;BMP280;51920;53.952;10.292;2022-07-29T01:32:55;101678.28;;;11.09
65316;BMP280;51920;53.952;10.292;2022-07-29T01:35:26;101685.28;;;11.10
65316;BMP280;51920;53.952;10.292;2022-07-29T01:38:05;101671.28;;;11.08
65316;BMP280;51920;53.952;10.292;2022-07-29T01:40:36;101665.03;;;11.04
65316;BMP280;51920;53.952;10.292;2022-07-29T01:43:09;101669.44;;;10.92
65316;BMP280;51920;53.952;10.292;2022-07-29T01:45:41;101660.44;;;10.88
65316;BMP280;51920;53.952;10.292;2022-07-29T01:48:27;101658.88;;;10.87
65316;BMP280;51920;53.952;10.292;2022-07-29T01:51:04;101660.38;;;10.85
65316;BMP280;51920;53.952;10.292;2022-07-29T01:53:34;101652.03;;;10.74
65316;BMP280;51920;53.952;10.292;2022-07-29T01:56:02;101649.66;;;10.72
65316;BMP280;51920;53.952;10.292;2022-07-29T01:58:29;101643.47;;;10.72
65316;BMP280;51920;53.952;10.292;2022-07-29T02:00:57;101643.91;;;10.74
65316;BMP280;51920;53.952;10.292;2022-07-29T02:03:24;101641.63;;;10.76
65316;BMP280;51920;53.952;10.292;2022-07-29T02:05:53;101648.69;;;10.81
65316;BMP280;51920;53.952;10.292;2022-07-29T02:08:21;101632.84;;;10.83
65316;BMP280;51920;53.952;10.292;2022-07-29T02:10:48;101637.47;;;10.82
65316;BMP280;51920;53.952;10.292;2022-07-29T02:13:16;101633.63;;;10.83
65316;BMP280;51920;53.952;10.292;2022-07-29T02:15:44;101632.03;;;10.82
65316;BMP280;51920;53.952;10.292;2022-07-29T02:18:17;101623.44;;;10.76
65316;BMP280;51920;53.952;10.292;2022-07-29T02:20:48;101635.66;;;10.86
65316;BMP280;51920;53.952;10.292;2022-07-29T02:23:17;101625.94;;;10.85
65316;BMP280;51920;53.952;10.292;2022-07-29T02:25:43;101629.84;;;10.88
65316;BMP280;51920;53.952;10.292;2022-07-29T02:28:10;101625.19;;;10.88
65316;BMP280;51920;53.952;10.292;2022-07-29T02:30:39;101627.13;;;10.88
65316;BMP280;51920;53.952;10.292;2022-07-29T02:33:06;101624.00;;;10.86
65316;BMP280;51920;53.952;10.292;2022-07-29T02:35:32;101622.78;;;10.83
65316;BMP280;51920;53.952;10.292;2022-07-29T02:37:58;101619.25;;;10.79
65316;BMP280;51920;53.952;10.292;2022-07-29T02:40:43;101611.88;;;10.80
65316;BMP280;51920;53.952;10.292;2022-07-29T02:43:09;101622.72;;;10.80
65316;BMP280;51920;53.952;10.292;2022-07-29T02:45:35;101618.63;;;10.89
65316;BMP280;51920;53.952;10.292;2022-07-29T02:48:05;101615.88;;;10.86
65316;BMP280;51920;53.952;10.292;2022-07-29T02:50:37;101613.81;;;10.79
65316;BMP280;51920;53.952;10.292;2022-07-29T02:53:08;101618.00;;;10.76
65316;BMP280;51920;53.952;10.292;2022-07-29T02:55:40;101616.53;;;10.79
65316;BMP280;51920;53.952;10.292;2022-07-29T03:00:46;101615.78;;;10.82
65316;BMP280;51920;53.952;10.292;2022-07-29T03:03:15;101617.00;;;10.85
65316;BMP280;51920;53.952;10.292;2022-07-29T03:05:41;101613.81;;;10.79
65316;BMP280;51920;53.952;10.292;2022-07-29T03:08:09;101603.13;;;10.67
65316;BMP280;51920;53.952;10.292;2022-07-29T03:10:37;101617.53;;;10.71
65316;BMP280;51920;53.952;10.292;2022-07-29T03:13:05;101616.03;;;10.73
65316;BMP280;51920;53.952;10.292;2022-07-29T03:15:30;101610.31;;;10.78
65316;BMP280;51920;53.952;10.292;2022-07-29T03:17:58;101608.94;;;10.88
65316;BMP280;51920;53.952;10.292;2022-07-29T03:20:24;101607.84;;;10.93
65316;BMP280;51920;53.952;10.292;2022-07-29T03:22:50;101613.19;;;10.89
65316;BMP280;51920;53.952;10.292;2022-07-29T03:25:17;101610.94;;;10.91
65316;BMP280;51920;53.952;10.292;2022-07-29T03:27:44;101619.88;;;10.92
65316;BMP280;51920;53.952;10.292;2022-07-29T03:30:10;101610.88;;;10.88
65316;BMP280;51920;53.952;10.292;2022-07-29T03:32:37;101608.94;;;10.88
65316;BMP280;51920;53.952;10.292;2022-07-29T03:35:04;101596.16;;;10.89
65316;BMP280;51920;53.952;10.292;2022-07-29T03:37:30;101601.53;;;10.85
65316;BMP280;51920;53.952;10.292;2022-07-29T03:39:57;101599.47;;;10.78
65316;BMP280;51920;53.952;10.292;2022-07-29T03:42:25;101605.69;;;10.79
65316;BMP280;51920;53.952;10.292;2022-07-29T03:44:52;101595.13;;;10.74
65316;BMP280;51920;53.952;10.292;2022-07-29T03:47:23;101599.09;;;10.80
65316;BMP280;51920;53.952;10.292;2022-07-29T03:49:52;101602.97;;;10.79
65316;BMP280;51920;53.952;10.292;2022-07-29T03:52:19;101601.78;;;10.80
65316;BMP280;51920;53.952;10.292;2022-07-29T03:54:45;101593.06;;;10.87
65316;BMP280;51920;53.952;10.292;2022-07-29T03:57:11;101598.16;;;10.92
65316;BMP280;51920;53.952;10.292;2022-07-29T03:59:37;101604.44;;;10.96
65316;BMP280;51920;53.952;10.292;2022-07-29T04:02:09;101595.66;;;11.03
65316;BMP280;51920;53.952;10.292;2022-07-29T04:04:35;101607.03;;;11.12
65316;BMP280;51920;53.952;10.292;2022-07-29T04:07:01;101593.97;;;11.17
65316;BMP280;51920;53.952;10.292;2022-07-29T04:09:27;101591.84;;;11.27
65316;BMP280;51920;53.952;10.292;2022-07-29T04:11:52;101598.94;;;11.35
65316;BMP280;51920;53.952;10.292;2022-07-29T04:14:18;101597.56;;;11.45
65316;BMP280;51920;53.952;10.292;2022-07-29T04:16:43;101605.81;;;11.52
65316;BMP280;51920;53.952;10.292;2022-07-29T04:19:08;101604.38;;;11.58
65316;BMP280;51920;53.952;10.292;2022-07-29T04:21:40;101604.94;;;11.71
65316;BMP280;51920;53.952;10.292;2022-07-29T04:24:07;101606.31;;;11.84
65316;BMP280;51920;53.952;10.292;2022-07-29T04:26:33;101599.78;;;11.89
65316;BMP280;51920;53.952;10.292;2022-07-29T04:28:59;101589.06;;;11.96
65316;BMP280;51920;53.952;10.292;2022-07-29T04:31:24;101593.81;;;12.06
65316;BMP280;51920;53.952;10.292;2022-07-29T04:33:50;101597.88;;;12.19
65316;BMP280;51920;53.952;10.292;2022-07-29T04:36:15;101592.88;;;12.21
65316;BMP280;51920;53.952;10.292;2022-07-29T04:38:40;101594.91;;;12.28
65316;BMP280;51920;53.952;10.292;2022-07-29T04:41:06;101591.91;;;12.37
65316;BMP280;51920;53.952;10.292;2022-07-29T04:43:34;101595.44;;;12.41
65316;BMP280;51920;53.952;10.292;2022-07-29T04:45:59;101593.22;;;12.50
65316;BMP280;51920;53.952;10.292;2022-07-29T04:48:26;101598.75;;;12.57
65316;BMP280;51920;53.952;10.292;2022-07-29T04:50:51;101589.84;;;12.60
65316;BMP280;51920;53.952;10.292;2022-07-29T04:53:17;101591.19;;;12.74
65316;BMP280;51920;53.952;10.292;2022-07-29T04:55:43;101597.06;;;12.79
65316;BMP280;51920;53.952;10.292;2022-07-29T04:58:08;101600.22;;;12.85
65316;BMP280;51920;53.952;10.292;2022-07-29T05:00:34;101595.25;;;12.94
65316;BMP280;51920;53.952;10.292;2022-07-29T05:02:59;101597.22;;;12.97
65316;BMP280;51920;53.952;10.292;2022-07-29T05:05:25;101586.84;;;13.10
65316;BMP280;51920;53.952;10.292;2022-07-29T05:07:50;101587.38;;;13.26
65316;BMP280;51920;53.952;10.292;2022-07-29T05:10:15;101593.13;;;13.18
65316;BMP280;51920;53.952;10.292;2022-07-29T05:12:41;101586.53;;;13.19
65316;BMP280;51920;53.952;10.292;2022-07-29T05:15:07;101586.88;;;13.14
65316;BMP280;51920;53.952;10.292;2022-07-29T05:17:32;101586.59;;;13.26
65316;BMP280;51920;53.952;10.292;2022-07-29T05:19:57;101585.91;;;13.36
65316;BMP280;51920;53.952;10.292;2022-07-29T05:22:23;101595.22;;;13.35
65316;BMP280;51920;53.952;10.292;2022-07-29T05:24:48;101597.72;;;13.58
65316;BMP280;51920;53.952;10.292;2022-07-29T05:27:14;101591.56;;;13.61
65316;BMP280;51920;53.952;10.292;2022-07-29T05:29:39;101591.59;;;13.72
65316;BMP280;51920;53.952;10.292;2022-07-29T05:32:05;101592.59;;;14.05
65316;BMP280;51920;53.952;10.292;2022-07-29T05:34:31;101605.13;;;14.27
65316;BMP280;51920;53.952;10.292;2022-07-29T05:36:56;101598.91;;;14.34
65316;BMP280;51920;53.952;10.292;2022-07-29T05:39:22;101602.47;;;14.56
65316;BMP280;51920;53.952;10.292;2022-07-29T05:41:48;101611.50;;;14.71
65316;BMP280;51920;53.952;10.292;2022-07-29T05:44:13;101606.03;;;14.74
65316;BMP280;51920;53.952;10.292;2022-07-29T05:46:39;101605.69;;;14.97
65316;BMP280;51920;53.952;10.292;2022-07-29T05:49:04;101601.81;;;15.13
65316;BMP280;51920;53.952;10.292;2022-07-29T05:51:32;101612.72;;;15.41
65316;BMP280;51920;53.952;10.292;2022-07-29T05:53:57;101605.28;;;15.60
65316;BMP280;51920;53.952;10.292;2022-07-29T05:56:24;101615.38;;;15.66
65316;BMP280;51920;53.952;10.292;2022-07-29T05:58:50;101613.78;;;15.73
65316;BMP280;51920;53.952;10.292;2022-07-29T06:01:15;101617.28;;;15.98
65316;BMP280;51920;53.952;10.292;2022-07-29T06:03:41;101613.66;;;16.16
65316;BMP280;51920;53.952;10.292;2022-07-29T06:06:07;101617.91;;;16.31
65316;BMP280;51920;53.952;10.292;2022-07-29T06:08:33;101613.50;;;16.51
65316;BMP280;51920;53.952;10.292;2022-07-29T06:10:59;101607.53;;;16.67
65316;BMP280;51920;53.952;10.292;2022-07-29T06:13:25;101613.78;;;16.68
65316;BMP280;51920;53.952;10.292;2022-07-29T06:15:50;101603.19;;;16.70
65316;BMP280;51920;53.952;10.292;2022-07-29T06:18:16;101612.72;;;16.51
65316;BMP280;51920;53.952;10.292;2022-07-29T06:20:41;101621.91;;;16.78
65316;BMP280;51920;53.952;10.292;2022-07-29T06:23:06;101622.47;;;17.08
65316;BMP280;51920;53.952;10.292;2022-07-29T06:25:32;101626.81;;;17.46
65316;BMP280;51920;53.952;10.292;2022-07-29T06:27:59;101626.69;;;17.61
65316;BMP280;51920;53.952;10.292;2022-07-29T06:30:25;101628.88;;;17.73
65316;BMP280;51920;53.952;10.292;2022-07-29T06:32:50;101626.25;;;17.66
65316;BMP280;51920;53.952;10.292;2022-07-29T06:35:16;101620.47;;;17.53
65316;BMP280;51920;53.952;10.292;2022-07-29T06:37:41;101622.09;;;17.47
65316;BMP280;51920;53.952;10.292;2022-07-29T06:40:07;101617.59;;;17.30
65316;BMP280;51920;53.952;10.292;2022-07-29T06:42:51;101616.88;;;17.26
65316;BMP280;51920;53.952;10.292;2022-07-29T06:45:16;101624.16;;;17.39
65316;BMP280;51920;53.952;10.292;2022-07-29T06:47:42;101620.00;;;17.24
65316;BMP280;51920;53.952;10.292;2022-07-29T06:50:07;101618.38;;;17.30
65316;BMP280;51920;53.952;10.292;2022-07-29T06:52:38;101620.75;;;17.24
65316;BMP280;51920;53.952;10.292;2022-07-29T06:55:04;101625.53;;;17.17
65316;BMP280;51920;53.952;10.292;2022-07-29T06:57:30;101618.75;;;17.32
65316;BMP280;51920;53.952;10.292;2022-07-29T06:59:58;101616.44;;;17.65
65316;BMP280;51920;53.952;10.292;2022-07-29T07:02:24;101617.69;;;17.91
65316;BMP280;51920;53.952;10.292;2022-07-29T07:04:49;101614.63;;;17.89
65316;BMP280;51920;53.952;10.292;2022-07-29T07:07:15;101607.03;;;18.27
65316;BMP280;51920;53.952;10.292;2022-07-29T07:09:40;101608.59;;;18.79
65316;BMP280;51920;53.952;10.292;2022-07-29T07:12:06;101612.09;;;19.26
65316;BMP280;51920;53.952;10.292;2022-07-29T07:14:31;101613.03;;;19.20
65316;BMP280;51920;53.952;10.292;2022-07-29T07:16:57;101608.63;;;19.46
65316;BMP280;51920;53.952;10.292;2022-07-29T07:19:22;101617.63;;;19.86
65316;BMP280;51920;53.952;10.292;2022-07-29T07:21:47;101615.81;;;20.32
65316;BMP280;51920;53.952;10.292;2022-07-29T07:24:13;101613.44;;;19.98
65316;BMP280;51920;53.952;10.292;2022-07-29T07:26:38;101614.13;;;19.66
65316;BMP280;51920;53.952;10.292;2022-07-29T07:29:05;101609.50;;;19.79
65316;BMP280;51920;53.952;10.292;2022-07-29T07:31:30;101609.22;;;20.10
65316;BMP280;51920;53.952;10.292;2022-07-29T07:33:56;101599.47;;;20.25
65316;BMP280;51920;53.952;10.292;2022-07-29T07:36:21;101601.78;;;20.27
65316;BMP280;51920;53.952;10.292;2022-07-29T07:38:47;101599.72;;;20.14
65316;BMP280;51920;53.952;10.292;2022-07-29T07:41:12;101596.03;;;20.21
65316;BMP280;51920;53.952;10.292;2022-07-29T07:43:38;101592.53;;;20.01
65316;BMP280;51920;53.952;10.292;2022-07-29T07:46:03;101585.94;;;20.31
65316;BMP280;51920;53.952;10.292;2022-07-29T07:48:29;101591.03;;;20.32
65316;BMP280;51920;53.952;10.292;2022-07-29T07:50:55;101589.44;;;20.51
65316;BMP280;51920;53.952;10.292;2022-07-29T07:53:21;101585.88;;;20.67
65316;BMP280;51920;53.952;10.292;2022-07-29T07:55:46;101588.19;;;20.36
65316;BMP280;51920;53.952;10.292;2022-07-29T07:58:12;101586.75;;;20.31
65316;BMP280;51920;53.952;10.292;2022-07-29T08:00:37;101587.19;;;20.46
65316;BMP280;51920;53.952;10.292;2022-07-29T08:03:03;101588.69;;;20.31
65316;BMP280;51920;53.952;10.292;2022-07-29T08:05:28;101589.94;;;20.46
65316;BMP280;51920;53.952;10.292;2022-07-29T08:07:53;101579.09;;;20.55
65316;BMP280;51920;53.952;10.292;2022-07-29T08:10:19;101598.16;;;20.79
65316;BMP280;51920;53.952;10.292;2022-07-29T08:13:08;101596.25;;;20.92
65316;BMP280;51920;53.952;10.292;2022-07-29T08:15:34;101595.22;;;21.02
65316;BMP280;51920;53.952;10.292;2022-07-29T08:18:00;101588.72;;;21.51
65316;BMP280;51920;53.952;10.292;2022-07-29T08:20:25;101593.69;;;22.33
65316;BMP280;51920;53.952;10.292;2022-07-29T08:22:57;101580.88;;;22.39
65316;BMP280;51920;53.952;10.292;2022-07-29T08:25:22;101590.41;;;23.16
65316;BMP280;51920;53.952;10.292;2022-07-29T08:27:48;101590.38;;;23.70
65316;BMP280;51920;53.952;10.292;2022-07-29T08:30:14;101595.06;;;23.91
65316;BMP280;51920;53.952;10.292;2022-07-29T08:32:39;101593.59;;;23.77
65316;BMP280;51920;53.952;10.292;2022-07-29T08:35:05;101591.66;;;23.47
65316;BMP280;51920;53.952;10.292;2022-07-29T08:37:30;101584.16;;;23.25
65316;BMP280;51920;53.952;10.292;2022-07-29T08:39:56;101591.00;;;22.89
65316;BMP280;51920;53.952;10.292;2022-07-29T08:42:21;101597.91;;;23.38
65316;BMP280;51920;53.952;10.292;2022-07-29T08:44:47;101594.22;;;23.72
65316;BMP280;51920;53.952;10.292;2022-07-29T08:47:16;101593.16;;;23.70
65316;BMP280;51920;53.952;10.292;2022-07-29T08:49:42;101587.63;;;23.70
65316;BMP280;51920;53.952;10.292;2022-07-29T08:52:10;101591.63;;;23.78
65316;BMP280;51920;53.952;10.292;2022-07-29T08:54:40;101587.78;;;23.75
65316;BMP280;51920;53.952;10.292;2022-07-29T08:57:09;101586.72;;;23.73
65316;BMP280;51920;53.952;10.292;2022-07-29T08:59:35;101584.38;;;23.62
65316;BMP280;51920;53.952;10.292;2022-07-29T09:02:03;101571.69;;;23.20
65316;BMP280;51920;53.952;10.292;2022-07-29T09:04:32;101575.38;;;22.61
65316;BMP280;51920;53.952;10.292;2022-07-29T09:07:00;101578.50;;;22.85
65316;BMP280;51920;53.952;10.292;2022-07-29T09:09:28;101576.97;;;23.06
65316;BMP280;51920;53.952;10.292;2022-07-29T09:11:54;101589.53;;;23.29
65316;BMP280;51920;53.952;10.292;2022-07-29T09:14:19;101582.22;;;23.35
65316;BMP280;51920;53.952;10.292;2022-07-29T09:16:52;101583.91;;;23.63
65316;BMP280;51920;53.952;10.292;2022-07-29T09:19:26;101573.16;;;23.65
65316;BMP280;51920;53.952;10.292;2022-07-29T09:22:02;101573.31;;;23.71
65316;BMP280;51920;53.952;10.292;2022-07-29T09:27:00;101587.63;;;24.47
65316;BMP280;51920;53.952;10.292;2022-07-29T09:29:26;101582.94;;;23.98
65316;BMP280;51920;53.952;10.292;2022-07-29T09:31:54;101580.47;;;24.00
65316;BMP280;51920;53.952;10.292;2022-07-29T09:36:49;101575.47;;;23.67
65316;BMP280;51920;53.952;10.292;2022-07-29T09:39:29;101587.91;;;24.58
65316;BMP280;51920;53.952;10.292;2022-07-29T09:41:58;101576.09;;;24.67
65316;BMP280;51920;53.952;10.292;2022-07-29T09:44:24;101580.41;;;24.49
65316;BMP280;51920;53.952;10.292;2022-07-29T09:46:58;101576.50;;;24.28
65316;BMP280;51920;53.952;10.292;2022-07-29T09:49:23;101574.84;;;24.49
65316;BMP280;51920;53.952;10.292;2022-07-29T09:52:06;101563.59;;;24.62
65316;BMP280;51920;53.952;10.292;2022-07-29T09:54:32;101583.56;;;24.94
65316;BMP280;51920;53.952;10.292;2022-07-29T09:57:07;101572.53;;;24.84
65316;BMP280;51920;53.952;10.292;2022-07-29T09:59:34;101567.13;;;24.81
65316;BMP280;51920;53.952;10.292;2022-07-29T10:01:59;101586.09;;;24.73
65316;BMP280;51920;53.952;10.292;2022-07-29T10:04:42;101571.59;;;24.51
65316;BMP280;51920;53.952;10.292;2022-07-29T10:07:08;101579.63;;;24.49
65316;BMP280;51920;53.952;10.292;2022-07-29T10:09:34;101574.22;;;24.36
65316;BMP280;51920;53.952;10.292;2022-07-29T10:14:32;101570.69;;;24.17
65316;BMP280;51920;53.952;10.292;2022-07-29T10:17:01;101567.53;;;23.87
65316;BMP280;51920;53.952;10.292;2022-07-29T10:19:30;101566.06;;;24.32
65316;BMP280;51920;53.952;10.292;2022-07-29T10:22:01;101573.78;;;24.47
65316;BMP280;51920;53.952;10.292;2022-07-29T10:24:29;101561.00;;;24.31
65316;BMP280;51920;53.952;10.292;2022-07-29T10:26:56;101556.06;;;24.44
65316;BMP280;51920;53.952;10.292;2022-07-29T10:29:22;101561.13;;;24.09
65316;BMP280;51920;53.952;10.292;2022-07-29T10:37:12;101562.03;;;24.89
65316;BMP280;51920;53.952;10.292;2022-07-29T10:42:21;101574.38;;;25.39
65316;BMP280;51920;53.952;10.292;2022-07-29T10:44:48;101550.22;;;25.30
65316;BMP280;51920;53.952;10.292;2022-07-29T10:47:22;101554.75;;;25.00
65316;BMP280;51920;53.952;10.292;2022-07-29T10:49:56;101559.59;;;24.91
65316;BMP280;51920;53.952;10.292;2022-07-29T10:52:22;101563.28;;;24.88
65316;BMP280;51920;53.952;10.292;2022-07-29T10:54:49;101558.25;;;25.10
65316;BMP280;51920;53.952;10.292;2022-07-29T10:57:23;101558.88;;;25.14
65316;BMP280;51920;53.952;10.292;2022-07-29T11:05:05;101552.16;;;24.97
65316;BMP280;51920;53.952;10.292;2022-07-29T11:07:32;101557.56;;;24.91
65316;BMP280;51920;53.952;10.292;2022-07-29T11:15:04;101557.91;;;24.47
65316;BMP280;51920;53.952;10.292;2022-07-29T11:20:45;101551.00;;;25.22
65316;BMP280;51920;53.952;10.292;2022-07-29T11:23:21;101551.50;;;25.53
65316;BMP280;51920;53.952;10.292;2022-07-29T11:31:47;101554.59;;;25.04
65316;BMP280;51920;53.952;10.292;2022-07-29T11:34:26;101547.59;;;24.66
65316;BMP280;51920;53.952;10.292;2022-07-29T11:39:42;101540.53;;;24.47
65316;BMP280;51920;53.952;10.292;2022-07-29T11:44:59;101554.03;;;24.35
65316;BMP280;51920;53.952;10.292;2022-07-29T11:47:28;101549.88;;;23.94
65316;BMP280;51920;53.952;10.292;2022-07-29T11:49:55;101546.94;;;23.98
65316;BMP280;51920;53.952;10.292;2022-07-29T11:52:22;101547.31;;;24.27
65316;BMP280;51920;53.952;10.292;2022-07-29T11:54:49;101550.53;;;24.35
65316;BMP280;51920;53.952;10.292;2022-07-29T11:57:17;101536.81;;;24.50
65316;BMP280;51920;53.952;10.292;2022-07-29T11:59:45;101546.97;;;24.62
65316;BMP280;51920;53.952;10.292;2022-07-29T12:02:11;101544.38;;;24.40
65316;BMP280;51920;53.952;10.292;2022-07-29T12:04:49;101530.69;;;24.36
65316;BMP280;51920;53.952;10.292;2022-07-29T12:07:15;101539.91;;;24.33
65316;BMP280;51920;53.952;10.292;2022-07-29T12:09:52;101529.09;;;23.99
65316;BMP280;51920;53.952;10.292;2022-07-29T12:12:18;101530.63;;;24.00
65316;BMP280;51920;53.952;10.292;2022-07-29T12:14:44;101530.94;;;23.92
65316;BMP280;51920;53.952;10.292;2022-07-29T12:17:44;101527.19;;;23.68
65316;BMP280;51920;53.952;10.292;2022-07-29T12:20:10;101530.19;;;24.01
65316;BMP280;51920;53.952;10.292;2022-07-29T12:22:40;101532.03;;;24.04
65316;BMP280;51920;53.952;10.292;2022-07-29T12:25:14;101524.34;;;23.90
65316;BMP280;51920;53.952;10.292;2022-07-29T12:27:41;101533.06;;;23.79
65316;BMP280;51920;53.952;10.292;2022-07-29T12:30:13;101524.44;;;23.77
65316;BMP280;51920;53.952;10.292;2022-07-29T12:32:41;101522.13;;;23.76
65316;BMP280;51920;53.952;10.292;2022-07-29T12:35:09;101523.66;;;23.67
65316;BMP280;51920;53.952;10.292;2022-07-29T12:37:36;101519.50;;;23.72
65316;BMP280;51920;53.952;10.292;2022-07-29T12:40:04;101521.03;;;23.64
65316;BMP280;51920;53.952;10.292;2022-07-29T12:42:30;101525.69;;;23.76
65316;BMP280;51920;53.952;10.292;2022-07-29T12:44:55;101519.25;;;23.88
65316;BMP280;51920;53.952;10.292;2022-07-29T12:47:22;101526.47;;;23.86
65316;BMP280;51920;53.952;10.292;2022-07-29T12:49:48;101524.94;;;23.85
65316;BMP280;51920;53.952;10.292;2022-07-29T12:52:31;101525.41;;;23.92
65316;BMP280;51920;53.952;10.292;2022-07-29T12:54:58;101528.75;;;23.69
65316;BMP280;51920;53.952;10.292;2022-07-29T12:57:23;101535.56;;;23.46
65316;BMP280;51920;53.952;10.292;2022-07-29T13:00:07;101532.44;;;23.35
65316;BMP280;51920;53.952;10.292;2022-07-29T13:02:36;101533.28;;;23.54
65316;BMP280;51920;53.952;10.292;2022-07-29T13:05:02;101530.19;;;23.52
65316;BMP280;51920;53.952;10.292;2022-07-29T13:07:30;101533.59;;;23.47
65316;BMP280;51920;53.952;10.292;2022-07-29T13:10:15;101527.03;;;23.31
65316;BMP280;51920;53.952;10.292;2022-07-29T13:13:08;101529.69;;;23.35
65316;BMP280;51920;53.952;10.292;2022-07-29T13:15:39;101525.94;;;23.60
65316;BMP280;51920;53.952;10.292;2022-07-29T13:18:06;101518.88;;;23.68
65316;BMP280;51920;53.952;10.292;2022-07-29T13:20:50;101530.25;;;23.61
65316;BMP280;51920;53.952;10.292;2022-07-29T13:23:16;101519.31;;;23.57
65316;BMP280;51920;53.952;10.292;2022-07-29T13:25:41;101522.03;;;23.39
65316;BMP280;51920;53.952;10.292;2022-07-29T13:28:07;101513.59;;;23.52
65316;BMP280;51920;53.952;10.292;2022-07-29T13:30:32;101507.78;;;23.59
65316;BMP280;51920;53.952;10.292;2022-07-29T13:32:58;101505.66;;;23.63
65316;BMP280;51920;53.952;10.292;2022-07-29T13:35:23;101512.16;;;23.69
65316;BMP280;51920;53.952;10.292;2022-07-29T13:37:49;101503.31;;;23.52
65316;BMP280;51920;53.952;10.292;2022-07-29T13:40:14;101502.69;;;23.39
65316;BMP280;51920;53.952;10.292;2022-07-29T13:42:40;101501.53;;;23.27
65316;BMP280;51920;53.952;10.292;2022-07-29T13:45:06;101506.78;;;23.34
65316;BMP280;51920;53.952;10.292;2022-07-29T13:47:32;101500.63;;;23.30
65316;BMP280;51920;53.952;10.292;2022-07-29T13:49:57;101493.22;;;23.58
65316;BMP280;51920;53.952;10.292;2022-07-29T13:52:23;101495.78;;;23.53
65316;BMP280;51920;53.952;10.292;2022-07-29T13:54:48;101503.91;;;23.47
65316;BMP280;51920;53.952;10.292;2022-07-29T13:57:14;101496.94;;;23.33
65316;BMP280;51920;53.952;10.292;2022-07-29T13:59:40;101489.31;;;23.47
65316;BMP280;51920;53.952;10.292;2022-07-29T14:02:07;101490.56;;;23.14
65316;BMP280;51920;53.952;10.292;2022-07-29T14:04:33;101492.19;;;23.34
65316;BMP280;51920;53.952;10.292;2022-07-29T14:06:58;101500.19;;;23.32
65316;BMP280;51920;53.952;10.292;2022-07-29T14:09:24;101498.56;;;23.12
65316;BMP280;51920;53.952;10.292;2022-07-29T14:11:49;101492.50;;;23.05
65316;BMP280;51920;53.952;10.292;2022-07-29T14:14:17;101488.50;;;23.06
65316;BMP280;51920;53.952;10.292;2022-07-29T14:16:42;101490.03;;;23.07
65316;BMP280;51920;53.952;10.292;2022-07-29T14:19:07;101489.34;;;23.15
65316;BMP280;51920;53.952;10.292;2022-07-29T14:21:33;101488.13;;;23.16
65316;BMP280;51920;53.952;10.292;2022-07-29T14:23:59;101489.06;;;22.91
65316;BMP280;51920;53.952;10.292;2022-07-29T14:26:25;101480.09;;;22.87
65316;BMP280;51920;53.952;10.292;2022-07-29T14:28:50;101480.97;;;22.75
65316;BMP280;51920;53.952;10.292;2022-07-29T14:31:16;101476.34;;;22.72
65316;BMP280;51920;53.952;10.292;2022-07-29T14:33:41;101480.56;;;22.64
65316;BMP280;51920;53.952;10.292;2022-07-29T14:36:07;101482.91;;;22.43
65316;BMP280;51920;53.952;10.292;2022-07-29T14:38:35;101479.53;;;22.48